Time,TemperatureF,DewpointF,PressureIn,WindDirection,WindDirectionDegrees,WindSpeedMPH,WindSpeedGustMPH,Humidity,HourlyPrecipIn,Conditions,Clouds,dailyrainin,SoftwareType,DateUTC
2013-08-22 00:00:00,74.6,65.8,30.00,South,190,0.0,1.0,74,0.00,,,0.00,VWS V14.01,2013-08-22 05:00:00,
2013-08-22 00:02:00,74.6,65.8,30.00,South,190,0.0,0.0,74,0.00,,CLR,0.00,VWS V14.01,2013-08-22 05:02:00,
2013-08-22 00:03:00,74.6,65.8,30.00,South,190,0.0,0.0,74,0.00,,CLR,0.00,VWS V14.01,2013-08-22 05:03:00,
2013-08-22 00:07:00,74.5,65.7,30.00,South,190,0.0,0.0,74,0.00,,CLR,0.00,VWS V14.01,2013-08-22 05:07:00,
2013-08-22 00:08:00,74.5,65.7,30.00,South,190,0.0,0.0,74,0.00,,CLR,0.00,VWS V14.01,2013-08-22 05:08:00,
2013-08-22 00:12:00,74.3,65.9,30.00,South,190,0.0,0.0,75,0.00,,CLR,0.00,VWS V14.01,2013-08-22 05:12:00,
2013-08-22 00:13:00,74.3,65.9,30.00,South,190,0.0,0.0,75,0.00,,CLR,0.00,VWS V14.01,2013-08-22 05:13:00,
2013-08-22 00:30:00,74.3,65.9,30.00,South,180,0.0,1.0,75,0.00,,,0.00,VWS V14.01,2013-08-22 05:30:00,
2013-08-22 01:00:00,74.2,66.5,29.99,South,180,0.0,1.0,77,0.00,,,0.00,VWS V14.01,2013-08-22 06:00:00,
2013-08-22 01:30:00,73.4,66.9,29.99,South,180,0.0,1.0,80,0.00,,,0.00,VWS V14.01,2013-08-22 06:30:00,
2013-08-22 02:00:00,72.6,66.8,29.98,South,180,0.0,3.0,82,0.00,,,0.00,VWS V14.01,2013-08-22 07:00:00,
2013-08-22 02:30:00,71.7,66.6,29.98,South,180,0.0,1.0,84,0.00,,,0.00,VWS V14.01,2013-08-22 07:30:00,
2013-08-22 03:00:00,71.0,66.6,29.98,South,180,0.0,1.0,86,0.00,,,0.00,VWS V14.01,2013-08-22 08:00:00,
2013-08-22 03:30:00,70.3,66.6,30.01,South,180,0.0,0.0,88,0.00,,,0.00,VWS V14.01,2013-08-22 08:30:00,
2013-08-22 04:00:00,69.4,66.3,30.01,South,180,0.0,0.0,90,0.00,,,0.00,VWS V14.01,2013-08-22 09:00:00,
2013-08-22 04:30:00,69.1,66.1,30.01,South,180,0.0,0.0,90,0.00,,,0.00,VWS V14.01,2013-08-22 09:30:00,
2013-08-22 05:00:00,69.2,66.2,30.01,South,180,0.0,0.0,90,0.00,,,0.00,VWS V14.01,2013-08-22 10:00:00,
2013-08-22 05:30:00,69.3,66.2,29.99,South,180,0.0,1.0,90,0.00,,,0.00,VWS V14.01,2013-08-22 10:30:00,
2013-08-22 06:00:00,69.2,66.2,30.00,South,180,0.0,0.0,90,0.00,,,0.00,VWS V14.01,2013-08-22 11:00:00,
2013-08-22 06:30:00,68.8,66.1,30.00,South,180,0.0,1.0,91,0.00,,,0.00,VWS V14.01,2013-08-22 11:30:00,
2013-08-22 07:00:00,68.9,66.2,30.01,South,180,0.0,1.0,91,0.00,,,0.00,VWS V14.01,2013-08-22 12:00:00,
2013-08-22 07:30:00,69.4,66.3,30.02,South,180,0.0,1.0,90,0.00,,,0.00,VWS V14.01,2013-08-22 12:30:00,
2013-08-22 08:00:00,70.9,66.2,30.02,South,180,0.0,1.0,85,0.00,,,0.00,VWS V14.01,2013-08-22 13:00:00,
2013-08-22 08:30:00,72.8,66.6,30.03,South,180,0.0,1.0,81,0.00,,,0.00,VWS V14.01,2013-08-22 13:30:00,
2013-08-22 09:00:00,70.9,66.2,30.02,South,180,0.0,1.0,85,0.00,,CLR,0.00,VWS V14.01,2013-08-22 14:00:00,
2013-08-22 09:22:00,72.8,66.6,30.03,South,180,0.0,1.0,81,0.00,,,0.00,VWS V14.01,2013-08-22 14:22:00,
2013-08-22 09:23:00,78.0,69.8,30.02,SSW,194,0.0,0.0,76,0.00,,,0.00,VWS V14.01,2013-08-22 14:23:00,
2013-08-22 09:27:00,78.4,69.8,30.02,South,184,0.0,1.0,75,0.00,,,0.00,VWS V14.01,2013-08-22 14:27:00,
2013-08-22 09:28:00,78.5,69.9,30.02,South,184,0.0,1.0,75,0.00,,,0.00,VWS V14.01,2013-08-22 14:28:00,
2013-08-22 09:30:00,78.9,69.9,30.01,South,183,0.0,1.0,74,0.00,,CLR,0.00,VWS V14.01,2013-08-22 14:30:00,
2013-08-22 09:32:00,79.1,70.1,30.01,South,183,0.0,0.0,74,0.00,,,0.00,VWS V14.01,2013-08-22 14:32:00,
2013-08-22 09:33:00,79.1,70.1,30.01,South,183,0.0,0.0,74,0.00,,,0.00,VWS V14.01,2013-08-22 14:33:00,
2013-08-22 09:38:00,79.7,69.9,30.01,South,184,0.0,1.0,72,0.00,,,0.00,VWS V14.01,2013-08-22 14:38:00,
2013-08-22 09:43:00,80.2,69.9,30.01,ENE,70,0.0,1.0,71,0.00,,,0.00,VWS V14.01,2013-08-22 14:43:00,
2013-08-22 09:48:00,80.6,70.3,30.01,SSW,213,0.0,1.0,71,0.00,,CLR,0.00,VWS V14.01,2013-08-22 14:48:00,
2013-08-22 09:49:00,80.8,70.5,30.01,SSW,213,0.0,1.0,71,0.00,,CLR,0.00,VWS V14.01,2013-08-22 14:49:00,
2013-08-22 09:53:00,81.1,70.8,30.01,SSW,213,0.0,1.0,71,0.00,,CLR,0.00,VWS V14.01,2013-08-22 14:53:00,
2013-08-22 09:54:00,81.3,71.0,30.01,WSW,238,0.0,1.0,71,0.00,,CLR,0.00,VWS V14.01,2013-08-22 14:54:00,
2013-08-22 09:58:00,81.7,70.6,30.01,WSW,246,0.0,1.0,69,0.00,,CLR,0.00,VWS V14.01,2013-08-22 14:58:00,
2013-08-22 09:59:00,81.7,70.6,30.01,WSW,246,0.0,1.0,69,0.00,,CLR,0.00,VWS V14.01,2013-08-22 14:59:00,
2013-08-22 10:00:00,81.9,70.3,30.01,SSE,150,0.0,1.0,68,0.00,,CLR,0.00,VWS V14.01,2013-08-22 15:00:00,
2013-08-22 10:03:00,82.3,70.7,30.01,SSE,151,0.0,1.0,68,0.00,,CLR,0.00,VWS V14.01,2013-08-22 15:03:00,
2013-08-22 10:04:00,82.3,70.3,30.01,SSE,154,0.0,1.0,67,0.00,,CLR,0.00,VWS V14.01,2013-08-22 15:04:00,
2013-08-22 10:08:00,82.3,69.8,30.01,WSW,238,0.0,1.0,66,0.00,,CLR,0.00,VWS V14.01,2013-08-22 15:08:00,
2013-08-22 10:09:00,82.5,70.0,30.01,WSW,238,0.0,1.0,66,0.00,,CLR,0.00,VWS V14.01,2013-08-22 15:09:00,
2013-08-22 10:13:00,82.9,70.4,30.01,WSW,238,0.0,1.0,66,0.00,,CLR,0.00,VWS V14.01,2013-08-22 15:13:00,
2013-08-22 10:14:00,82.9,70.4,30.01,WSW,238,0.0,1.0,66,0.00,,CLR,0.00,VWS V14.01,2013-08-22 15:14:00,
2013-08-22 10:19:00,83.5,70.9,30.01,WSW,238,0.0,1.0,66,0.00,,CLR,0.00,VWS V14.01,2013-08-22 15:19:00,
2013-08-22 10:24:00,83.9,70.4,30.01,NW,319,0.0,5.0,64,0.00,,CLR,0.00,VWS V14.01,2013-08-22 15:24:00,
2013-08-22 10:25:00,83.9,70.4,30.01,NW,319,0.0,5.0,64,0.00,,CLR,0.00,VWS V14.01,2013-08-22 15:25:00,
2013-08-22 10:29:00,84.0,71.0,30.01,NW,319,0.0,5.0,65,0.00,,CLR,0.00,VWS V14.01,2013-08-22 15:29:00,
2013-08-22 10:30:00,84.0,71.0,30.01,SSE,159,0.0,5.0,65,0.00,,CLR,0.00,VWS V14.01,2013-08-22 15:30:00,
2013-08-22 10:34:00,84.2,70.7,30.01,West,273,0.0,1.0,64,0.00,,CLR,0.00,VWS V14.01,2013-08-22 15:34:00,
2013-08-22 10:35:00,84.2,70.2,30.01,West,273,0.0,1.0,63,0.00,,CLR,0.00,VWS V14.01,2013-08-22 15:35:00,
2013-08-22 10:39:00,84.2,70.7,30.01,NW,318,0.0,1.0,64,0.00,,CLR,0.00,VWS V14.01,2013-08-22 15:39:00,
2013-08-22 10:40:00,84.2,70.2,30.01,NW,317,0.0,5.0,63,0.00,,CLR,0.00,VWS V14.01,2013-08-22 15:40:00,
2013-08-22 10:44:00,84.0,70.5,30.01,NNW,338,0.0,7.0,64,0.00,,CLR,0.00,VWS V14.01,2013-08-22 15:44:00,
2013-08-22 10:45:00,84.0,70.5,30.01,NNW,338,0.0,7.0,64,0.00,,CLR,0.00,VWS V14.01,2013-08-22 15:45:00,
2013-08-22 10:49:00,84.4,70.9,30.01,WNW,295,0.0,7.0,64,0.00,,CLR,0.00,VWS V14.01,2013-08-22 15:49:00,
2013-08-22 10:50:00,84.4,71.4,30.01,WNW,295,0.0,7.0,65,0.00,,CLR,0.00,VWS V14.01,2013-08-22 15:50:00,
2013-08-22 10:55:00,85.0,71.5,30.01,WNW,300,0.0,7.0,64,0.00,,CLR,0.00,VWS V14.01,2013-08-22 15:55:00,
2013-08-22 11:00:00,85.6,71.6,30.01,NW,317,0.0,7.0,63,0.00,,CLR,0.00,VWS V14.01,2013-08-22 16:00:00,
2013-08-22 11:05:00,85.6,71.6,30.01,West,263,0.0,0.0,63,0.00,,CLR,0.00,VWS V14.01,2013-08-22 16:05:00,
2013-08-22 11:06:00,85.6,72.0,30.01,West,264,0.0,0.0,64,0.00,,CLR,0.00,VWS V14.01,2013-08-22 16:06:00,
2013-08-22 11:10:00,85.6,71.1,30.01,West,269,0.0,1.0,62,0.00,,CLR,0.00,VWS V14.01,2013-08-22 16:10:00,
2013-08-22 11:11:00,85.6,71.1,30.01,West,269,0.0,1.0,62,0.00,,CLR,0.00,VWS V14.01,2013-08-22 16:11:00,
2013-08-22 11:15:00,85.8,71.3,30.01,WNW,303,0.0,1.0,62,0.00,,CLR,0.00,VWS V14.01,2013-08-22 16:15:00,
2013-08-22 11:16:00,85.8,71.3,30.01,WNW,303,0.0,1.0,62,0.00,,CLR,0.00,VWS V14.01,2013-08-22 16:16:00,
2013-08-22 11:20:00,85.8,71.3,30.01,NW,304,0.0,1.0,62,0.00,,CLR,0.00,VWS V14.01,2013-08-22 16:20:00,
2013-08-22 11:21:00,85.8,71.3,30.01,WNW,285,0.0,1.0,62,0.00,,CLR,0.00,VWS V14.01,2013-08-22 16:21:00,
2013-08-22 11:22:00,86.0,71.5,30.01,WNW,298,1.0,1.0,62,0.00,,CLR,0.00,VWS V14.01,2013-08-22 16:22:00,
2013-08-22 11:25:00,85.8,71.3,30.01,WNW,288,0.0,1.0,62,0.00,,CLR,0.00,VWS V14.01,2013-08-22 16:25:00,
2013-08-22 11:26:00,85.8,71.3,30.01,WNW,288,0.0,1.0,62,0.00,,CLR,0.00,VWS V14.01,2013-08-22 16:26:00,
2013-08-22 11:27:00,85.6,70.6,30.01,SSW,194,0.0,1.0,61,0.00,,CLR,0.00,VWS V14.01,2013-08-22 16:27:00,
2013-08-22 11:30:00,85.4,70.9,30.01,SSW,200,0.0,1.0,62,0.00,,,0.00,VWS V14.01,2013-08-22 16:30:00,
2013-08-22 11:31:00,85.4,70.9,30.01,SSW,200,0.0,0.0,62,0.00,,CLR,0.00,VWS V14.01,2013-08-22 16:31:00,
2013-08-22 11:32:00,85.4,70.9,30.01,SSW,200,0.0,1.0,62,0.00,,CLR,0.00,VWS V14.01,2013-08-22 16:32:00,
2013-08-22 11:36:00,85.2,70.7,30.01,SSW,201,0.0,1.0,62,0.00,,CLR,0.00,VWS V14.01,2013-08-22 16:36:00,
2013-08-22 11:37:00,85.2,70.7,30.01,SSW,201,0.0,1.0,62,0.00,,CLR,0.00,VWS V14.01,2013-08-22 16:37:00,
2013-08-22 11:41:00,85.6,71.1,30.01,SSW,201,0.0,1.0,62,0.00,,CLR,0.00,VWS V14.01,2013-08-22 16:41:00,
2013-08-22 11:42:00,86.0,71.5,30.01,SSW,201,0.0,1.0,62,0.00,,CLR,0.00,VWS V14.01,2013-08-22 16:42:00,
2013-08-22 11:46:00,86.4,70.9,30.01,West,260,0.0,1.0,60,0.00,,CLR,0.00,VWS V14.01,2013-08-22 16:46:00,
2013-08-22 11:47:00,86.4,71.4,30.01,West,267,0.0,1.0,61,0.00,,CLR,0.00,VWS V14.01,2013-08-22 16:47:00,
2013-08-22 11:51:00,86.6,71.6,30.01,WNW,289,0.0,1.0,61,0.00,,CLR,0.00,VWS V14.01,2013-08-22 16:51:00,
2013-08-22 11:52:00,86.9,71.3,30.01,WNW,289,0.0,1.0,60,0.00,,CLR,0.00,VWS V14.01,2013-08-22 16:52:00,
2013-08-22 11:56:00,87.1,71.5,30.01,NW,314,0.0,2.0,60,0.00,,CLR,0.00,VWS V14.01,2013-08-22 16:56:00,
2013-08-22 11:57:00,87.3,71.2,30.01,NW,314,0.0,2.0,59,0.00,,CLR,0.00,VWS V14.01,2013-08-22 16:57:00,
2013-08-22 12:00:00,86.6,70.6,30.00,SSW,198,0.0,2.0,59,0.00,,,0.00,VWS V14.01,2013-08-22 17:00:00,
2013-08-22 12:01:00,86.6,71.1,30.00,SSW,198,0.0,0.0,60,0.00,,CLR,0.00,VWS V14.01,2013-08-22 17:01:00,
2013-08-22 12:02:00,86.4,71.8,30.00,SSW,198,0.0,0.0,62,0.00,,CLR,0.00,VWS V14.01,2013-08-22 17:02:00,
2013-08-22 12:03:00,86.4,71.4,30.00,SSW,198,0.0,0.0,61,0.00,,CLR,0.00,VWS V14.01,2013-08-22 17:03:00,
2013-08-22 12:06:00,86.6,72.0,30.00,SSW,213,0.0,0.0,62,0.00,,CLR,0.00,VWS V14.01,2013-08-22 17:06:00,
2013-08-22 12:07:00,86.6,72.0,30.00,SSW,213,0.0,0.0,62,0.00,,CLR,0.00,VWS V14.01,2013-08-22 17:07:00,
2013-08-22 12:08:00,86.6,71.6,30.00,NW,317,0.0,1.0,61,0.00,,CLR,0.00,VWS V14.01,2013-08-22 17:08:00,
2013-08-22 12:11:00,86.6,71.6,30.00,NW,313,0.0,1.0,61,0.00,,CLR,0.00,VWS V14.01,2013-08-22 17:11:00,
2013-08-22 12:12:00,86.6,71.6,30.00,NW,313,0.0,1.0,61,0.00,,CLR,0.00,VWS V14.01,2013-08-22 17:12:00,
2013-08-22 12:13:00,86.6,72.0,30.00,NW,314,0.0,1.0,62,0.00,,CLR,0.00,VWS V14.01,2013-08-22 17:13:00,
2013-08-22 12:16:00,86.9,71.3,30.00,NW,313,0.0,1.0,60,0.00,,CLR,0.00,VWS V14.01,2013-08-22 17:16:00,
2013-08-22 12:17:00,86.9,71.3,30.00,NW,313,0.0,1.0,60,0.00,,CLR,0.00,VWS V14.01,2013-08-22 17:17:00,
2013-08-22 12:18:00,86.9,71.8,30.00,NW,313,0.0,1.0,61,0.00,,CLR,0.00,VWS V14.01,2013-08-22 17:18:00,
2013-08-22 12:19:00,86.9,71.8,30.00,NW,314,0.0,1.0,61,0.00,,CLR,0.00,VWS V14.01,2013-08-22 17:19:00,
2013-08-22 12:21:00,87.3,72.2,30.00,NW,313,0.0,1.0,61,0.00,,CLR,0.00,VWS V14.01,2013-08-22 17:21:00,
2013-08-22 12:22:00,87.3,72.2,30.00,NW,313,0.0,1.0,61,0.00,,CLR,0.00,VWS V14.01,2013-08-22 17:22:00,
2013-08-22 12:23:00,87.3,71.7,30.00,NW,314,0.0,1.0,60,0.00,,CLR,0.00,VWS V14.01,2013-08-22 17:23:00,
2013-08-22 12:24:00,87.5,71.4,30.00,NW,314,0.0,1.0,59,0.00,,CLR,0.00,VWS V14.01,2013-08-22 17:24:00,
2013-08-22 12:26:00,87.7,71.6,30.00,NW,314,0.0,1.0,59,0.00,,CLR,0.00,VWS V14.01,2013-08-22 17:26:00,
2013-08-22 12:27:00,87.7,71.6,30.00,NW,314,0.0,1.0,59,0.00,,CLR,0.00,VWS V14.01,2013-08-22 17:27:00,
2013-08-22 12:28:00,87.7,71.6,30.00,NW,313,0.0,1.0,59,0.00,,CLR,0.00,VWS V14.01,2013-08-22 17:28:00,
2013-08-22 12:29:00,87.9,71.8,30.00,NW,313,0.0,1.0,59,0.00,,CLR,0.00,VWS V14.01,2013-08-22 17:29:00,
2013-08-22 12:30:00,87.9,71.3,30.00,NW,310,0.0,1.0,58,0.00,,,0.00,VWS V14.01,2013-08-22 17:30:00,
2013-08-22 12:32:00,87.9,70.8,30.00,NW,310,0.0,0.0,57,0.00,,CLR,0.00,VWS V14.01,2013-08-22 17:32:00,
2013-08-22 12:33:00,87.9,71.3,30.00,NW,310,0.0,0.0,58,0.00,,CLR,0.00,VWS V14.01,2013-08-22 17:33:00,
2013-08-22 12:34:00,87.9,70.3,30.00,NW,310,0.0,0.0,56,0.00,,CLR,0.00,VWS V14.01,2013-08-22 17:34:00,
2013-08-22 12:37:00,87.9,70.8,30.00,NW,318,0.0,1.0,57,0.00,,CLR,0.00,VWS V14.01,2013-08-22 17:37:00,
2013-08-22 12:38:00,87.9,69.7,30.00,NW,313,0.0,6.0,55,0.00,,CLR,0.00,VWS V14.01,2013-08-22 17:38:00,
2013-08-22 12:39:00,87.7,70.1,30.00,NW,326,2.0,6.0,56,0.00,,CLR,0.00,VWS V14.01,2013-08-22 17:39:00,
2013-08-22 12:42:00,87.7,71.1,30.00,NW,313,0.0,6.0,58,0.00,,CLR,0.00,VWS V14.01,2013-08-22 17:42:00,
2013-08-22 12:43:00,87.9,72.3,30.00,NW,311,0.0,6.0,60,0.00,,CLR,0.00,VWS V14.01,2013-08-22 17:43:00,
2013-08-22 12:44:00,87.9,72.3,30.00,NW,311,0.0,6.0,60,0.00,,CLR,0.00,VWS V14.01,2013-08-22 17:44:00,
2013-08-22 12:47:00,87.9,70.8,30.00,WNW,287,0.0,6.0,57,0.00,,CLR,0.00,VWS V14.01,2013-08-22 17:47:00,
2013-08-22 12:48:00,87.7,71.1,30.00,WNW,287,0.0,6.0,58,0.00,,CLR,0.00,VWS V14.01,2013-08-22 17:48:00,
2013-08-22 12:49:00,87.9,71.3,30.00,NW,312,0.0,6.0,58,0.00,,CLR,0.00,VWS V14.01,2013-08-22 17:49:00,
2013-08-22 12:50:00,87.9,70.8,30.00,NW,313,5.0,6.0,57,0.00,,CLR,0.00,VWS V14.01,2013-08-22 17:50:00,
2013-08-22 12:52:00,88.1,70.4,30.00,NW,325,3.0,6.0,56,0.00,,CLR,0.00,VWS V14.01,2013-08-22 17:52:00,
2013-08-22 12:53:00,87.9,69.7,30.00,NNW,327,6.0,6.0,55,0.00,,CLR,0.00,VWS V14.01,2013-08-22 17:53:00,
2013-08-22 12:54:00,87.9,70.8,30.00,North,350,0.0,6.0,57,0.00,,CLR,0.00,VWS V14.01,2013-08-22 17:54:00,
2013-08-22 12:55:00,87.9,70.3,30.00,NNW,333,0.0,6.0,56,0.00,,CLR,0.00,VWS V14.01,2013-08-22 17:55:00,
2013-08-22 12:57:00,87.9,69.7,30.00,NW,314,0.0,6.0,55,0.00,,CLR,0.00,VWS V14.01,2013-08-22 17:57:00,
2013-08-22 12:58:00,87.7,69.5,30.00,NW,314,0.0,6.0,55,0.00,,CLR,0.00,VWS V14.01,2013-08-22 17:58:00,
2013-08-22 12:59:00,87.7,70.1,30.00,NW,314,0.0,6.0,56,0.00,,CLR,0.00,VWS V14.01,2013-08-22 17:59:00,
2013-08-22 13:00:00,87.9,70.8,29.99,NW,314,0.0,6.0,57,0.00,,CLR,0.00,VWS V14.01,2013-08-22 18:00:00,
2013-08-22 13:02:00,87.9,70.3,29.99,North,360,0.0,1.0,56,0.00,,CLR,0.00,VWS V14.01,2013-08-22 18:02:00,
2013-08-22 13:03:00,87.9,69.7,29.99,North,360,0.0,1.0,55,0.00,,CLR,0.00,VWS V14.01,2013-08-22 18:03:00,
2013-08-22 13:04:00,87.7,70.1,29.99,North,360,0.0,1.0,56,0.00,,CLR,0.00,VWS V14.01,2013-08-22 18:04:00,
2013-08-22 13:05:00,87.7,70.6,29.99,NNE,17,0.0,2.0,57,0.00,,CLR,0.00,VWS V14.01,2013-08-22 18:05:00,
2013-08-22 13:07:00,87.7,71.1,29.99,NNE,15,0.0,2.0,58,0.00,,CLR,0.00,VWS V14.01,2013-08-22 18:07:00,
2013-08-22 13:09:00,87.9,71.3,29.99,NNE,13,0.0,2.0,58,0.00,,CLR,0.00,VWS V14.01,2013-08-22 18:09:00,
2013-08-22 13:10:00,88.1,71.0,29.99,NNW,338,0.0,2.0,57,0.00,,CLR,0.00,VWS V14.01,2013-08-22 18:10:00,
2013-08-22 13:12:00,88.3,71.2,29.99,NW,317,0.0,2.0,57,0.00,,CLR,0.00,VWS V14.01,2013-08-22 18:12:00,
2013-08-22 13:14:00,88.3,71.2,29.99,NW,316,0.0,2.0,57,0.00,,CLR,0.00,VWS V14.01,2013-08-22 18:14:00,
2013-08-22 13:15:00,88.5,70.3,29.99,North,360,0.0,5.0,55,0.00,,CLR,0.00,VWS V14.01,2013-08-22 18:15:00,
2013-08-22 13:17:00,88.3,70.6,29.99,NW,313,0.0,7.0,56,0.00,,CLR,0.00,VWS V14.01,2013-08-22 18:17:00,
2013-08-22 13:19:00,88.1,69.9,29.99,NNW,333,1.0,7.0,55,0.00,,CLR,0.00,VWS V14.01,2013-08-22 18:19:00,
2013-08-22 13:20:00,87.9,70.8,29.99,NNW,333,0.0,7.0,57,0.00,,CLR,0.00,VWS V14.01,2013-08-22 18:20:00,
2013-08-22 13:22:00,87.7,71.1,29.99,NNW,333,0.0,7.0,58,0.00,,CLR,0.00,VWS V14.01,2013-08-22 18:22:00,
2013-08-22 13:24:00,87.7,70.6,29.99,NNW,334,0.0,7.0,57,0.00,,CLR,0.00,VWS V14.01,2013-08-22 18:24:00,
2013-08-22 13:25:00,87.7,71.1,29.99,NNW,334,0.0,7.0,58,0.00,,CLR,0.00,VWS V14.01,2013-08-22 18:25:00,
2013-08-22 13:27:00,87.9,71.3,29.99,NNW,333,0.0,7.0,58,0.00,,CLR,0.00,VWS V14.01,2013-08-22 18:27:00,
2013-08-22 13:29:00,87.9,70.3,29.99,NNW,333,0.0,7.0,56,0.00,,CLR,0.00,VWS V14.01,2013-08-22 18:29:00,
2013-08-22 13:30:00,87.9,70.3,29.99,NNW,331,0.0,7.0,56,0.00,,CLR,0.00,VWS V14.01,2013-08-22 18:30:00,
2013-08-22 13:32:00,87.7,71.1,29.99,NW,325,0.0,5.0,58,0.00,,CLR,0.00,VWS V14.01,2013-08-22 18:32:00,
2013-08-22 13:34:00,87.7,70.6,29.99,NW,325,0.0,5.0,57,0.00,,CLR,0.00,VWS V14.01,2013-08-22 18:34:00,
2013-08-22 13:35:00,87.7,71.1,29.99,NW,325,0.0,5.0,58,0.00,,CLR,0.00,VWS V14.01,2013-08-22 18:35:00,
2013-08-22 13:36:00,87.9,71.3,29.99,NW,326,0.0,5.0,58,0.00,,CLR,0.00,VWS V14.01,2013-08-22 18:36:00,
2013-08-22 13:38:00,87.7,71.1,29.99,NW,319,0.0,5.0,58,0.00,,CLR,0.00,VWS V14.01,2013-08-22 18:38:00,
2013-08-22 13:39:00,87.7,71.1,29.99,NNW,342,3.0,6.0,58,0.00,,CLR,0.00,VWS V14.01,2013-08-22 18:39:00,
2013-08-22 13:40:00,87.7,71.6,29.99,NNW,338,0.0,6.0,59,0.00,,CLR,0.00,VWS V14.01,2013-08-22 18:40:00,
2013-08-22 13:41:00,87.7,71.6,29.99,NNW,329,0.0,6.0,59,0.00,,CLR,0.00,VWS V14.01,2013-08-22 18:41:00,
2013-08-22 13:43:00,87.5,70.4,29.99,North,349,0.0,6.0,57,0.00,,CLR,0.00,VWS V14.01,2013-08-22 18:43:00,
2013-08-22 13:44:00,87.3,70.7,29.99,NW,321,3.0,6.0,58,0.00,,CLR,0.00,VWS V14.01,2013-08-22 18:44:00,
2013-08-22 13:45:00,87.3,70.7,29.99,NW,307,4.0,6.0,58,0.00,,CLR,0.00,VWS V14.01,2013-08-22 18:45:00,
2013-08-22 13:46:00,87.1,71.0,29.99,North,355,0.0,6.0,59,0.00,,CLR,0.00,VWS V14.01,2013-08-22 18:46:00,
2013-08-22 13:48:00,87.1,71.5,29.99,NW,323,4.0,6.0,60,0.00,,CLR,0.00,VWS V14.01,2013-08-22 18:48:00,
2013-08-22 13:49:00,86.9,70.4,29.99,NW,316,0.0,6.0,58,0.00,,CLR,0.00,VWS V14.01,2013-08-22 18:49:00,
2013-08-22 13:50:00,86.9,70.4,29.99,NW,311,0.0,6.0,58,0.00,,CLR,0.00,VWS V14.01,2013-08-22 18:50:00,
2013-08-22 13:51:00,86.9,70.4,29.99,North,11,0.0,6.0,58,0.00,,CLR,0.00,VWS V14.01,2013-08-22 18:51:00,
2013-08-22 13:53:00,86.9,70.4,29.99,North,5,0.0,6.0,58,0.00,,CLR,0.00,VWS V14.01,2013-08-22 18:53:00,
2013-08-22 13:54:00,86.9,69.8,29.99,North,5,0.0,6.0,57,0.00,,CLR,0.00,VWS V14.01,2013-08-22 18:54:00,
2013-08-22 13:55:00,86.9,70.4,29.99,North,5,0.0,6.0,58,0.00,,CLR,0.00,VWS V14.01,2013-08-22 18:55:00,
2013-08-22 13:56:00,86.9,69.8,29.99,NNW,341,0.0,6.0,57,0.00,,CLR,0.00,VWS V14.01,2013-08-22 18:56:00,
2013-08-22 13:58:00,86.9,70.4,29.99,NNW,341,0.0,6.0,58,0.00,,CLR,0.00,VWS V14.01,2013-08-22 18:58:00,
2013-08-22 13:59:00,87.1,70.5,29.99,NNW,340,0.0,6.0,58,0.00,,CLR,0.00,VWS V14.01,2013-08-22 18:59:00,
2013-08-22 14:00:00,87.1,70.5,29.99,NNW,333,0.0,6.0,58,0.00,,CLR,0.00,VWS V14.01,2013-08-22 19:00:00,
2013-08-22 14:01:00,87.1,70.5,29.99,NNW,344,0.0,0.0,58,0.00,,CLR,0.00,VWS V14.01,2013-08-22 19:01:00,
2013-08-22 14:03:00,87.1,70.5,29.99,NW,325,6.0,7.0,58,0.00,,CLR,0.00,VWS V14.01,2013-08-22 19:03:00,
2013-08-22 14:05:00,86.9,70.9,29.99,NNW,334,0.0,7.0,59,0.00,,CLR,0.00,VWS V14.01,2013-08-22 19:05:00,
2013-08-22 14:06:00,86.9,71.3,29.99,NW,317,2.0,7.0,60,0.00,,CLR,0.00,VWS V14.01,2013-08-22 19:06:00,
2013-08-22 14:08:00,86.6,71.1,29.99,NW,316,0.0,7.0,60,0.00,,CLR,0.00,VWS V14.01,2013-08-22 19:08:00,
2013-08-22 14:10:00,86.6,71.1,29.99,NW,317,0.0,7.0,60,0.00,,CLR,0.00,VWS V14.01,2013-08-22 19:10:00,
2013-08-22 14:11:00,86.6,71.1,29.99,NW,316,0.0,7.0,60,0.00,,CLR,0.00,VWS V14.01,2013-08-22 19:11:00,
2013-08-22 14:13:00,86.6,71.1,29.99,NW,324,3.0,7.0,60,0.00,,CLR,0.00,VWS V14.01,2013-08-22 19:13:00,
2013-08-22 14:15:00,86.4,70.9,29.99,NW,323,0.0,7.0,60,0.00,,CLR,0.00,VWS V14.01,2013-08-22 19:15:00,
2013-08-22 14:17:00,86.4,70.9,29.99,NW,323,0.0,7.0,60,0.00,,CLR,0.00,VWS V14.01,2013-08-22 19:17:00,
2013-08-22 14:18:00,86.4,70.9,29.99,NW,323,0.0,7.0,60,0.00,,CLR,0.00,VWS V14.01,2013-08-22 19:18:00,
2013-08-22 14:20:00,86.4,70.9,29.99,NW,323,0.0,7.0,60,0.00,,CLR,0.00,VWS V14.01,2013-08-22 19:20:00,
2013-08-22 14:21:00,86.4,70.9,29.99,NW,323,1.0,7.0,60,0.00,,CLR,0.00,VWS V14.01,2013-08-22 19:21:00,
2013-08-22 14:22:00,86.4,70.9,29.99,NW,323,0.0,7.0,60,0.00,,CLR,0.00,VWS V14.01,2013-08-22 19:22:00,
2013-08-22 14:23:00,86.4,70.9,29.99,NW,323,0.0,7.0,60,0.00,,CLR,0.00,VWS V14.01,2013-08-22 19:23:00,
2013-08-22 14:25:00,86.4,70.9,29.99,NW,323,0.0,7.0,60,0.00,,CLR,0.00,VWS V14.01,2013-08-22 19:25:00,
2013-08-22 14:26:00,86.4,70.9,29.99,NW,323,0.0,7.0,60,0.00,,CLR,0.00,VWS V14.01,2013-08-22 19:26:00,
2013-08-22 14:27:00,86.4,71.4,29.99,NW,323,0.0,7.0,61,0.00,,CLR,0.00,VWS V14.01,2013-08-22 19:27:00,
2013-08-22 14:28:00,86.4,71.4,29.99,North,350,0.0,7.0,61,0.00,,CLR,0.00,VWS V14.01,2013-08-22 19:28:00,
2013-08-22 14:30:00,86.4,71.8,29.98,North,350,0.0,7.0,62,0.00,,CLR,0.00,VWS V14.01,2013-08-22 19:30:00,
2013-08-22 14:31:00,86.4,71.8,29.98,North,350,0.0,0.0,62,0.00,,CLR,0.00,VWS V14.01,2013-08-22 19:31:00,
2013-08-22 14:32:00,86.4,71.4,29.98,North,350,0.0,0.0,61,0.00,,CLR,0.00,VWS V14.01,2013-08-22 19:32:00,
2013-08-22 14:33:00,86.2,71.2,29.98,North,350,0.0,1.0,61,0.00,,CLR,0.00,VWS V14.01,2013-08-22 19:33:00,
2013-08-22 14:35:00,86.4,71.8,29.98,North,350,0.0,1.0,62,0.00,,CLR,0.00,VWS V14.01,2013-08-22 19:35:00,
2013-08-22 14:36:00,86.4,71.8,29.98,North,350,0.0,1.0,62,0.00,,CLR,0.00,VWS V14.01,2013-08-22 19:36:00,
2013-08-22 14:37:00,86.4,71.4,29.98,North,350,0.0,1.0,61,0.00,,CLR,0.00,VWS V14.01,2013-08-22 19:37:00,
2013-08-22 14:38:00,86.4,71.4,29.98,North,350,0.0,1.0,61,0.00,,CLR,0.00,VWS V14.01,2013-08-22 19:38:00,
2013-08-22 14:39:00,86.4,70.9,29.98,North,350,0.0,1.0,60,0.00,,CLR,0.00,VWS V14.01,2013-08-22 19:39:00,
2013-08-22 14:41:00,86.4,71.8,29.98,North,350,0.0,1.0,62,0.00,,CLR,0.00,VWS V14.01,2013-08-22 19:41:00,
2013-08-22 14:42:00,86.4,71.8,29.98,North,350,0.0,1.0,62,0.00,,CLR,0.00,VWS V14.01,2013-08-22 19:42:00,
2013-08-22 14:43:00,86.6,72.0,29.98,North,350,0.0,1.0,62,0.00,,CLR,0.00,VWS V14.01,2013-08-22 19:43:00,
2013-08-22 14:44:00,86.6,72.0,29.98,North,350,0.0,1.0,62,0.00,,CLR,0.00,VWS V14.01,2013-08-22 19:44:00,
2013-08-22 14:46:00,86.9,70.9,29.99,North,350,0.0,1.0,59,0.00,,RA,0.00,VWS V14.01,2013-08-22 19:46:00,
2013-08-22 14:47:00,87.1,71.0,29.99,North,350,0.0,1.0,59,0.00,,RA,0.00,VWS V14.01,2013-08-22 19:47:00,
2013-08-22 14:48:00,87.1,71.0,29.99,North,350,1.0,1.0,59,0.00,,RA,0.00,VWS V14.01,2013-08-22 19:48:00,
2013-08-22 14:49:00,87.3,71.2,29.99,North,350,0.0,1.0,59,0.00,,RA,0.00,VWS V14.01,2013-08-22 19:49:00,
2013-08-22 14:51:00,87.5,71.4,29.99,NNW,338,0.0,1.0,59,0.00,,RA,0.00,VWS V14.01,2013-08-22 19:51:00,
2013-08-22 14:52:00,87.5,70.9,29.99,NNE,32,0.0,6.0,58,0.00,,RA,0.00,VWS V14.01,2013-08-22 19:52:00,
2013-08-22 14:53:00,87.5,70.9,29.99,NNE,32,0.0,6.0,58,0.00,,RA,0.00,VWS V14.01,2013-08-22 19:53:00,
2013-08-22 14:54:00,87.5,70.9,29.99,NNW,342,4.0,6.0,58,0.00,,RA,0.00,VWS V14.01,2013-08-22 19:54:00,
2013-08-22 14:56:00,87.5,70.4,29.99,North,360,0.0,6.0,57,0.00,,RA,0.00,VWS V14.01,2013-08-22 19:56:00,
2013-08-22 14:57:00,87.7,70.6,29.99,North,360,0.0,6.0,57,0.00,,RA,0.00,VWS V14.01,2013-08-22 19:57:00,
2013-08-22 14:58:00,87.7,70.6,29.99,NNE,14,4.0,6.0,57,0.00,,RA,0.00,VWS V14.01,2013-08-22 19:58:00,
2013-08-22 15:00:00,87.7,71.1,29.97,NNE,15,0.0,6.0,58,0.00,,SCT055,0.00,VWS V14.01,2013-08-22 20:00:00,
2013-08-22 15:01:00,87.5,70.9,29.97,NNE,21,1.0,1.0,58,0.00,,SCT055,0.00,VWS V14.01,2013-08-22 20:01:00,
2013-08-22 15:03:00,87.5,69.9,29.97,NNW,342,0.0,4.0,56,0.00,,SCT055,0.00,VWS V14.01,2013-08-22 20:03:00,
2013-08-22 15:05:00,87.3,70.2,29.97,North,351,3.0,4.0,57,0.00,,SCT055,0.00,VWS V14.01,2013-08-22 20:05:00,
2013-08-22 15:06:00,87.3,69.7,29.97,North,351,0.0,4.0,56,0.00,,SCT055,0.00,VWS V14.01,2013-08-22 20:06:00,
2013-08-22 15:07:00,87.3,69.7,29.97,North,351,0.0,4.0,56,0.00,,SCT055,0.00,VWS V14.01,2013-08-22 20:07:00,
2013-08-22 15:08:00,87.3,70.2,29.97,North,351,0.0,4.0,57,0.00,,SCT055,0.00,VWS V14.01,2013-08-22 20:08:00,
2013-08-22 15:11:00,87.1,69.5,29.97,NW,311,3.0,6.0,56,0.00,,SCT055,0.00,VWS V14.01,2013-08-22 20:11:00,
2013-08-22 15:12:00,87.1,69.5,29.97,NW,319,0.0,6.0,56,0.00,,SCT055,0.00,VWS V14.01,2013-08-22 20:12:00,
2013-08-22 15:13:00,86.9,68.8,29.97,NW,319,0.0,6.0,55,0.00,,SCT055,0.00,VWS V14.01,2013-08-22 20:13:00,
2013-08-22 15:14:00,86.9,68.8,29.97,NW,319,0.0,6.0,55,0.00,,SCT055,0.00,VWS V14.01,2013-08-22 20:14:00,
2013-08-22 15:16:00,87.1,69.5,29.97,NNW,342,0.0,6.0,56,0.00,,SCT085,0.00,VWS V14.01,2013-08-22 20:16:00,
2013-08-22 15:17:00,86.9,69.8,29.97,NNW,342,0.0,6.0,57,0.00,,SCT085,0.00,VWS V14.01,2013-08-22 20:17:00,
2013-08-22 15:18:00,86.9,69.3,29.97,NNW,342,0.0,6.0,56,0.00,,SCT085,0.00,VWS V14.01,2013-08-22 20:18:00,
2013-08-22 15:19:00,86.9,69.3,29.97,North,355,0.0,6.0,56,0.00,,SCT085,0.00,VWS V14.01,2013-08-22 20:19:00,
2013-08-22 15:21:00,86.6,69.1,29.97,North,350,0.0,6.0,56,0.00,,SCT085,0.00,VWS V14.01,2013-08-22 20:21:00,
2013-08-22 15:22:00,86.6,69.1,29.97,North,350,0.0,6.0,56,0.00,,SCT085,0.00,VWS V14.01,2013-08-22 20:22:00,
2013-08-22 15:23:00,86.6,68.5,29.97,North,350,0.0,6.0,55,0.00,,SCT085,0.00,VWS V14.01,2013-08-22 20:23:00,
2013-08-22 15:24:00,86.4,68.3,29.97,North,350,0.0,6.0,55,0.00,,SCT085,0.00,VWS V14.01,2013-08-22 20:24:00,
2013-08-22 15:26:00,86.4,69.4,29.97,North,9,0.0,6.0,57,0.00,,SCT085,0.00,VWS V14.01,2013-08-22 20:26:00,
2013-08-22 15:27:00,86.4,68.9,29.97,North,9,0.0,6.0,56,0.00,,SCT085,0.00,VWS V14.01,2013-08-22 20:27:00,
2013-08-22 15:28:00,86.4,68.9,29.97,NW,312,0.0,6.0,56,0.00,,SCT085,0.00,VWS V14.01,2013-08-22 20:28:00,
2013-08-22 15:29:00,86.4,68.9,29.97,NW,320,0.0,6.0,56,0.00,,SCT085,0.00,VWS V14.01,2013-08-22 20:29:00,
2013-08-22 15:30:00,86.4,69.4,29.97,NW,320,0.0,6.0,57,0.00,,,0.00,VWS V14.01,2013-08-22 20:30:00,
2013-08-22 15:31:00,86.4,69.4,29.97,NW,320,0.0,0.0,57,0.00,,SCT055,0.00,VWS V14.01,2013-08-22 20:31:00,
2013-08-22 15:32:00,86.4,69.4,29.97,NW,320,0.0,1.0,57,0.00,,SCT055,0.00,VWS V14.01,2013-08-22 20:32:00,
2013-08-22 15:33:00,86.4,69.9,29.97,NW,314,0.0,2.0,58,0.00,,SCT055,0.00,VWS V14.01,2013-08-22 20:33:00,
2013-08-22 15:34:00,86.4,69.9,29.97,NW,314,0.0,2.0,58,0.00,,SCT055,0.00,VWS V14.01,2013-08-22 20:34:00,
2013-08-22 15:36:00,86.4,69.9,29.97,NW,315,0.0,2.0,58,0.00,,SCT055,0.00,VWS V14.01,2013-08-22 20:36:00,
2013-08-22 15:37:00,86.4,69.9,29.97,NW,314,0.0,2.0,58,0.00,,SCT055,0.00,VWS V14.01,2013-08-22 20:37:00,
2013-08-22 15:38:00,86.4,69.9,29.97,NW,314,0.0,2.0,58,0.00,,SCT055,0.00,VWS V14.01,2013-08-22 20:38:00,
2013-08-22 15:39:00,86.4,70.4,29.97,NW,314,0.0,2.0,59,0.00,,SCT055,0.00,VWS V14.01,2013-08-22 20:39:00,
2013-08-22 15:42:00,86.4,70.4,29.97,NW,315,0.0,2.0,59,0.00,,SCT055,0.00,VWS V14.01,2013-08-22 20:42:00,
2013-08-22 15:43:00,86.4,70.4,29.97,NW,315,0.0,2.0,59,0.00,,SCT055,0.00,VWS V14.01,2013-08-22 20:43:00,
2013-08-22 15:44:00,86.4,70.4,29.97,NW,324,0.0,2.0,59,0.00,,SCT055,0.00,VWS V14.01,2013-08-22 20:44:00,
2013-08-22 15:47:00,86.4,70.9,29.96,NNW,328,0.0,2.0,60,0.00,,SCT037,0.00,VWS V14.01,2013-08-22 20:47:00,
2013-08-22 15:48:00,86.6,71.1,29.96,NNW,328,0.0,2.0,60,0.00,,SCT037,0.00,VWS V14.01,2013-08-22 20:48:00,
2013-08-22 15:49:00,86.6,70.6,29.96,NNW,344,0.0,2.0,59,0.00,,SCT037,0.00,VWS V14.01,2013-08-22 20:49:00,
2013-08-22 15:52:00,87.1,70.5,29.96,NW,324,3.0,4.0,58,0.00,,SCT037,0.00,VWS V14.01,2013-08-22 20:52:00,
2013-08-22 15:53:00,87.1,70.0,29.96,NW,324,0.0,4.0,57,0.00,,SCT037,0.00,VWS V14.01,2013-08-22 20:53:00,
2013-08-22 15:54:00,87.3,70.7,29.96,NW,324,0.0,4.0,58,0.00,,SCT037,0.00,VWS V14.01,2013-08-22 20:54:00,
2013-08-22 15:57:00,87.3,70.2,29.96,NNW,328,0.0,4.0,57,0.00,,SCT037,0.00,VWS V14.01,2013-08-22 20:57:00,
2013-08-22 15:58:00,87.3,70.2,29.96,NNW,328,0.0,4.0,57,0.00,,SCT037,0.00,VWS V14.01,2013-08-22 20:58:00,
2013-08-22 15:59:00,87.5,70.9,29.96,NNW,327,0.0,4.0,58,0.00,,SCT037,0.00,VWS V14.01,2013-08-22 20:59:00,
2013-08-22 16:00:00,87.5,70.9,29.96,NNW,327,0.0,4.0,58,0.00,,,0.00,VWS V14.01,2013-08-22 21:00:00,
2013-08-22 16:02:00,87.5,70.4,29.96,NNW,328,0.0,6.0,57,0.00,,,0.00,VWS V14.01,2013-08-22 21:02:00,
2013-08-22 16:03:00,87.5,70.4,29.96,NNW,328,0.0,6.0,57,0.00,,,0.00,VWS V14.01,2013-08-22 21:03:00,
2013-08-22 16:04:00,87.5,70.9,29.96,NNW,328,0.0,6.0,58,0.00,,,0.00,VWS V14.01,2013-08-22 21:04:00,
2013-08-22 16:07:00,87.3,70.2,29.96,NW,325,0.0,6.0,57,0.00,,,0.00,VWS V14.01,2013-08-22 21:07:00,
2013-08-22 16:08:00,87.3,70.2,29.96,NW,325,0.0,6.0,57,0.00,,,0.00,VWS V14.01,2013-08-22 21:08:00,
2013-08-22 16:09:00,87.3,70.7,29.96,NW,325,0.0,6.0,58,0.00,,,0.00,VWS V14.01,2013-08-22 21:09:00,
2013-08-22 16:13:00,87.3,70.7,29.96,NW,317,0.0,6.0,58,0.00,,,0.00,VWS V14.01,2013-08-22 21:13:00,
2013-08-22 16:14:00,87.3,71.2,29.96,NW,317,0.0,6.0,59,0.00,,,0.00,VWS V14.01,2013-08-22 21:14:00,
2013-08-22 16:18:00,87.1,71.5,29.96,NNW,332,0.0,6.0,60,0.00,,SCT037,0.00,VWS V14.01,2013-08-22 21:18:00,
2013-08-22 16:19:00,87.1,71.5,29.96,NNW,327,0.0,6.0,60,0.00,,SCT037,0.00,VWS V14.01,2013-08-22 21:19:00,
2013-08-22 16:20:00,87.1,71.5,29.96,NNW,332,0.0,6.0,60,0.00,,SCT037,0.00,VWS V14.01,2013-08-22 21:20:00,
2013-08-22 16:23:00,87.1,71.5,29.96,NNW,331,0.0,6.0,60,0.00,,SCT037,0.00,VWS V14.01,2013-08-22 21:23:00,
2013-08-22 16:24:00,87.1,71.0,29.96,NNW,331,0.0,6.0,59,0.00,,SCT037,0.00,VWS V14.01,2013-08-22 21:24:00,
2013-08-22 16:25:00,87.1,71.0,29.96,NNW,331,0.0,6.0,59,0.00,,SCT037,0.00,VWS V14.01,2013-08-22 21:25:00,
2013-08-22 16:28:00,87.1,71.5,29.96,NNW,331,0.0,6.0,60,0.00,,SCT037,0.00,VWS V14.01,2013-08-22 21:28:00,
2013-08-22 16:29:00,87.1,71.5,29.96,NNW,330,0.0,6.0,60,0.00,,SCT037,0.00,VWS V14.01,2013-08-22 21:29:00,
2013-08-22 16:30:00,87.1,71.5,29.97,NNW,330,0.0,6.0,60,0.00,,SCT037,0.00,VWS V14.01,2013-08-22 21:30:00,
2013-08-22 16:33:00,87.1,71.5,29.97,NNW,329,1.0,1.0,60,0.00,,SCT037,0.00,VWS V14.01,2013-08-22 21:33:00,
2013-08-22 16:34:00,87.1,71.5,29.97,NW,321,0.0,1.0,60,0.00,,SCT037,0.00,VWS V14.01,2013-08-22 21:34:00,
2013-08-22 16:35:00,87.1,72.0,29.97,NW,321,0.0,1.0,61,0.00,,SCT037,0.00,VWS V14.01,2013-08-22 21:35:00,
2013-08-22 16:38:00,86.9,71.3,29.97,NW,321,0.0,1.0,60,0.00,,SCT037,0.00,VWS V14.01,2013-08-22 21:38:00,
2013-08-22 16:39:00,86.9,71.3,29.97,NW,321,0.0,1.0,60,0.00,,SCT037,0.00,VWS V14.01,2013-08-22 21:39:00,
2013-08-22 16:40:00,86.9,70.9,29.97,NW,321,0.0,1.0,59,0.00,,SCT037,0.00,VWS V14.01,2013-08-22 21:40:00,
2013-08-22 16:41:00,86.6,70.1,29.97,NNW,329,0.0,1.0,58,0.00,,SCT037,0.00,VWS V14.01,2013-08-22 21:41:00,
2013-08-22 16:43:00,86.6,71.6,29.97,NNW,329,0.0,1.0,61,0.00,,SCT037,0.00,VWS V14.01,2013-08-22 21:43:00,
2013-08-22 16:44:00,86.9,71.8,29.97,NNW,329,0.0,1.0,61,0.00,,SCT037,0.00,VWS V14.01,2013-08-22 21:44:00,
2013-08-22 16:45:00,86.9,71.3,29.95,NNW,329,0.0,1.0,60,0.00,,SCT039,0.00,VWS V14.01,2013-08-22 21:45:00,
2013-08-22 16:46:00,86.9,70.9,29.95,NNW,329,0.0,1.0,59,0.00,,SCT039,0.00,VWS V14.01,2013-08-22 21:46:00,
2013-08-22 16:48:00,86.9,70.4,29.95,NNW,329,0.0,1.0,58,0.00,,SCT039,0.00,VWS V14.01,2013-08-22 21:48:00,
2013-08-22 16:49:00,86.9,70.4,29.95,NNW,329,0.0,1.0,58,0.00,,SCT039,0.00,VWS V14.01,2013-08-22 21:49:00,
2013-08-22 16:50:00,87.1,70.5,29.95,NNW,329,0.0,1.0,58,0.00,,SCT039,0.00,VWS V14.01,2013-08-22 21:50:00,
2013-08-22 16:51:00,87.1,71.0,29.95,NNW,329,0.0,1.0,59,0.00,,SCT039,0.00,VWS V14.01,2013-08-22 21:51:00,
2013-08-22 16:54:00,87.3,71.2,29.95,NNW,329,0.0,1.0,59,0.00,,SCT039,0.00,VWS V14.01,2013-08-22 21:54:00,
2013-08-22 16:55:00,87.1,71.5,29.95,NNW,329,0.0,1.0,60,0.00,,SCT039,0.00,VWS V14.01,2013-08-22 21:55:00,
2013-08-22 16:56:00,87.1,71.5,29.95,NNW,329,0.0,1.0,60,0.00,,SCT039,0.00,VWS V14.01,2013-08-22 21:56:00,
2013-08-22 16:59:00,87.1,71.5,29.95,NNW,329,0.0,1.0,60,0.00,,SCT039,0.00,VWS V14.01,2013-08-22 21:59:00,
2013-08-22 17:00:00,87.1,72.0,29.94,NNW,329,0.0,1.0,61,0.00,,SCT049,0.00,VWS V14.01,2013-08-22 22:00:00,
2013-08-22 17:01:00,87.1,71.5,29.94,NNW,329,0.0,0.0,60,0.00,,SCT049,0.00,VWS V14.01,2013-08-22 22:01:00,
2013-08-22 17:04:00,86.9,71.3,29.94,NNW,329,0.0,0.0,60,0.00,,SCT049,0.00,VWS V14.01,2013-08-22 22:04:00,
2013-08-22 17:05:00,86.9,71.3,29.94,NNW,329,0.0,0.0,60,0.00,,SCT049,0.00,VWS V14.01,2013-08-22 22:05:00,
2013-08-22 17:06:00,86.9,71.8,29.94,NNW,329,0.0,0.0,61,0.00,,SCT049,0.00,VWS V14.01,2013-08-22 22:06:00,
2013-08-22 17:09:00,86.9,71.3,29.94,NNW,329,0.0,1.0,60,0.00,,SCT049,0.00,VWS V14.01,2013-08-22 22:09:00,
2013-08-22 17:10:00,86.9,71.8,29.94,NNW,329,0.0,1.0,61,0.00,,SCT049,0.00,VWS V14.01,2013-08-22 22:10:00,
2013-08-22 17:11:00,86.9,71.3,29.94,NNW,329,0.0,1.0,60,0.00,,SCT049,0.00,VWS V14.01,2013-08-22 22:11:00,
2013-08-22 17:14:00,86.9,71.3,29.94,NNW,328,0.0,1.0,60,0.00,,SCT049,0.00,VWS V14.01,2013-08-22 22:14:00,
2013-08-22 17:16:00,86.9,71.3,29.94,NNW,328,0.0,1.0,60,0.00,,SCT039,0.00,VWS V14.01,2013-08-22 22:16:00,
2013-08-22 17:17:00,86.9,70.9,29.94,NNW,328,0.0,1.0,59,0.00,,SCT039,0.00,VWS V14.01,2013-08-22 22:17:00,
2013-08-22 17:19:00,86.9,71.8,29.94,NNW,328,0.0,1.0,61,0.00,,SCT039,0.00,VWS V14.01,2013-08-22 22:19:00,
2013-08-22 17:21:00,86.6,71.6,29.94,NNW,328,0.0,1.0,61,0.00,,SCT039,0.00,VWS V14.01,2013-08-22 22:21:00,
2013-08-22 17:22:00,86.6,71.6,29.94,NNW,328,0.0,1.0,61,0.00,,SCT039,0.00,VWS V14.01,2013-08-22 22:22:00,
2013-08-22 17:24:00,86.6,71.6,29.94,NNW,328,0.0,1.0,61,0.00,,SCT039,0.00,VWS V14.01,2013-08-22 22:24:00,
2013-08-22 17:26:00,86.6,71.1,29.94,NNW,328,0.0,1.0,60,0.00,,SCT039,0.00,VWS V14.01,2013-08-22 22:26:00,
2013-08-22 17:27:00,86.6,71.6,29.94,NNW,329,0.0,1.0,61,0.00,,SCT039,0.00,VWS V14.01,2013-08-22 22:27:00,
2013-08-22 17:29:00,86.4,72.3,29.94,NNW,344,7.0,8.0,63,0.00,,SCT039,0.00,VWS V14.01,2013-08-22 22:29:00,
2013-08-22 17:30:00,86.2,72.1,29.94,NW,319,4.0,8.0,63,0.00,,SCT039,0.00,VWS V14.01,2013-08-22 22:30:00,
2013-08-22 17:31:00,85.6,72.0,29.94,NNE,15,4.0,6.0,64,0.00,,SCT049,0.00,VWS V14.01,2013-08-22 22:31:00,
2013-08-22 17:32:00,84.8,72.2,29.94,NE,38,8.0,8.0,66,0.00,,SCT049,0.00,VWS V14.01,2013-08-22 22:32:00,
2013-08-22 17:34:00,84.0,72.3,29.94,NNW,338,1.0,8.0,68,0.00,,SCT049,0.00,VWS V14.01,2013-08-22 22:34:00,
2013-08-22 17:35:00,83.9,72.7,29.94,NW,317,0.0,8.0,69,0.00,,SCT049,0.00,VWS V14.01,2013-08-22 22:35:00,
2013-08-22 17:36:00,83.3,72.1,29.94,NNE,19,0.0,8.0,69,0.00,,SCT049,0.00,VWS V14.01,2013-08-22 22:36:00,
2013-08-22 17:37:00,83.3,72.1,29.94,NNE,19,0.0,8.0,69,0.00,,SCT049,0.00,VWS V14.01,2013-08-22 22:37:00,
2013-08-22 17:40:00,82.3,71.1,29.94,North,5,5.0,8.0,69,0.00,,SCT049,0.00,VWS V14.01,2013-08-22 22:40:00,
2013-08-22 17:41:00,81.9,71.2,29.94,NNW,336,0.0,8.0,70,0.00,,SCT049,0.00,VWS V14.01,2013-08-22 22:41:00,
2013-08-22 17:42:00,81.9,71.2,29.94,NNW,344,0.0,8.0,70,0.00,,SCT049,0.00,VWS V14.01,2013-08-22 22:42:00,
2013-08-22 17:43:00,81.7,70.6,29.94,NNE,26,2.0,8.0,69,0.00,,SCT049,0.00,VWS V14.01,2013-08-22 22:43:00,
2013-08-22 17:45:00,81.1,70.0,29.95,NNW,330,3.0,9.0,69,0.00,,SCT049,0.00,VWS V14.01,2013-08-22 22:45:00,
2013-08-22 17:47:00,81.0,69.9,29.95,NNE,28,0.0,9.0,69,0.00,,SCT049,0.00,VWS V14.01,2013-08-22 22:47:00,
2013-08-22 17:48:00,80.8,69.7,29.95,NE,40,2.0,9.0,69,0.00,,SCT049,0.00,VWS V14.01,2013-08-22 22:48:00,
2013-08-22 17:50:00,80.4,69.3,29.95,North,5,0.0,9.0,69,0.00,,SCT049,0.00,VWS V14.01,2013-08-22 22:50:00,
2013-08-22 17:52:00,80.4,69.3,29.95,North,9,6.0,9.0,69,0.00,,SCT049,0.00,VWS V14.01,2013-08-22 22:52:00,
2013-08-22 17:53:00,80.2,68.7,29.95,NNW,335,0.0,9.0,68,0.00,,SCT049,0.00,VWS V14.01,2013-08-22 22:53:00,
2013-08-22 17:55:00,79.8,68.7,29.95,North,5,3.0,9.0,69,0.00,,SCT049,0.00,VWS V14.01,2013-08-22 22:55:00,
2013-08-22 17:57:00,79.7,68.6,29.95,NE,36,3.0,9.0,69,0.00,,SCT049,0.00,VWS V14.01,2013-08-22 22:57:00,
2013-08-22 17:58:00,79.7,68.6,29.95,NNE,20,0.0,9.0,69,0.00,,SCT049,0.00,VWS V14.01,2013-08-22 22:58:00,
2013-08-22 18:00:00,79.3,68.3,29.96,North,11,0.0,9.0,69,0.00,,SCT049,0.00,VWS V14.01,2013-08-22 23:00:00,
2013-08-22 18:02:00,79.3,68.3,29.96,North,360,3.0,10.0,69,0.00,,SCT049,0.00,VWS V14.01,2013-08-22 23:02:00,
2013-08-22 18:03:00,79.1,68.1,29.96,NNW,344,0.0,10.0,69,0.00,,SCT049,0.00,VWS V14.01,2013-08-22 23:03:00,
2013-08-22 18:05:00,79.1,68.5,29.96,North,9,0.0,10.0,70,0.00,,SCT049,0.00,VWS V14.01,2013-08-22 23:05:00,
2013-08-22 18:06:00,79.1,68.5,29.96,North,9,0.0,10.0,70,0.00,,SCT049,0.00,VWS V14.01,2013-08-22 23:06:00,
2013-08-22 18:07:00,79.1,68.1,29.96,NNW,340,0.0,10.0,69,0.00,,SCT049,0.00,VWS V14.01,2013-08-22 23:07:00,
2013-08-22 18:08:00,79.1,68.1,29.96,NE,51,0.0,10.0,69,0.00,,SCT049,0.00,VWS V14.01,2013-08-22 23:08:00,
2013-08-22 18:11:00,78.9,67.9,29.96,NNE,19,0.0,10.0,69,0.00,,SCT049,0.00,VWS V14.01,2013-08-22 23:11:00,
2013-08-22 18:12:00,78.9,67.9,29.96,North,5,0.0,10.0,69,0.00,,SCT049,0.00,VWS V14.01,2013-08-22 23:12:00,
2013-08-22 18:13:00,78.9,67.9,29.96,North,5,0.0,10.0,69,0.00,,SCT049,0.00,VWS V14.01,2013-08-22 23:13:00,
2013-08-22 18:16:00,78.9,67.9,29.96,NNE,18,0.0,10.0,69,0.00,,SCT049,0.00,VWS V14.01,2013-08-22 23:16:00,
2013-08-22 18:17:00,78.9,67.9,29.96,North,5,1.0,10.0,69,0.00,,SCT049,0.00,VWS V14.01,2013-08-22 23:17:00,
2013-08-22 18:18:00,78.9,67.9,29.96,NNE,30,0.0,10.0,69,0.00,,SCT049,0.00,VWS V14.01,2013-08-22 23:18:00,
2013-08-22 18:21:00,78.9,68.3,29.96,NNE,12,0.0,10.0,70,0.00,,SCT049,0.00,VWS V14.01,2013-08-22 23:21:00,
2013-08-22 18:22:00,78.9,68.3,29.96,North,10,0.0,10.0,70,0.00,,SCT049,0.00,VWS V14.01,2013-08-22 23:22:00,
2013-08-22 18:23:00,78.7,68.1,29.96,North,10,0.0,10.0,70,0.00,,SCT049,0.00,VWS V14.01,2013-08-22 23:23:00,
2013-08-22 18:26:00,78.9,67.9,29.96,NNW,337,0.0,10.0,69,0.00,,SCT049,0.00,VWS V14.01,2013-08-22 23:26:00,
2013-08-22 18:28:00,78.9,67.9,29.96,NNE,32,0.0,10.0,69,0.00,,SCT049,0.00,VWS V14.01,2013-08-22 23:28:00,
2013-08-22 18:30:00,78.9,67.9,29.96,NW,320,0.0,10.0,69,0.00,,,0.00,VWS V14.01,2013-08-22 23:30:00,
2013-08-22 18:31:00,78.9,67.9,29.96,NE,41,0.0,5.0,69,0.00,,SCT049,0.00,VWS V14.01,2013-08-22 23:31:00,
2013-08-22 18:33:00,78.7,67.7,29.96,NE,35,4.0,6.0,69,0.00,,SCT049,0.00,VWS V14.01,2013-08-22 23:33:00,
2013-08-22 18:36:00,78.7,68.1,29.96,NNE,18,0.0,6.0,70,0.00,,SCT049,0.00,VWS V14.01,2013-08-22 23:36:00,
2013-08-22 18:37:00,78.7,68.1,29.96,NNE,18,0.0,6.0,70,0.00,,SCT049,0.00,VWS V14.01,2013-08-22 23:37:00,
2013-08-22 18:38:00,78.7,67.7,29.96,NE,42,0.0,6.0,69,0.00,,SCT049,0.00,VWS V14.01,2013-08-22 23:38:00,
2013-08-22 18:39:00,78.7,67.7,29.96,ENE,59,3.0,6.0,69,0.00,,SCT049,0.00,VWS V14.01,2013-08-22 23:39:00,
2013-08-22 18:42:00,78.5,67.9,29.96,NNE,32,0.0,6.0,70,0.00,,SCT049,0.00,VWS V14.01,2013-08-22 23:42:00,
2013-08-22 18:43:00,78.5,67.5,29.96,NNE,17,0.0,6.0,69,0.00,,SCT049,0.00,VWS V14.01,2013-08-22 23:43:00,
2013-08-22 18:44:00,78.5,67.5,29.96,North,5,0.0,6.0,69,0.00,,SCT049,0.00,VWS V14.01,2013-08-22 23:44:00,
2013-08-22 18:47:00,78.4,67.4,29.96,NNE,32,0.0,6.0,69,0.00,,CLR,0.00,VWS V14.01,2013-08-22 23:47:00,
2013-08-22 18:48:00,78.4,67.8,29.96,NNE,32,0.0,6.0,70,0.00,,CLR,0.00,VWS V14.01,2013-08-22 23:48:00,
2013-08-22 18:49:00,78.4,67.8,29.96,NE,54,3.0,6.0,70,0.00,,CLR,0.00,VWS V14.01,2013-08-22 23:49:00,
2013-08-22 18:52:00,78.2,67.6,29.96,NNE,23,0.0,6.0,70,0.00,,CLR,0.00,VWS V14.01,2013-08-22 23:52:00,
2013-08-22 18:53:00,78.2,67.6,29.96,NNE,23,0.0,6.0,70,0.00,,CLR,0.00,VWS V14.01,2013-08-22 23:53:00,
2013-08-22 18:54:00,78.2,67.6,29.96,ENE,65,1.0,6.0,70,0.00,,CLR,0.00,VWS V14.01,2013-08-22 23:54:00,
2013-08-22 18:57:00,78.2,68.0,29.96,ENE,62,0.0,6.0,71,0.00,,CLR,0.00,VWS V14.01,2013-08-22 23:57:00,
2013-08-22 18:58:00,78.2,68.0,29.96,NE,36,0.0,6.0,71,0.00,,CLR,0.00,VWS V14.01,2013-08-22 23:58:00,
2013-08-22 18:59:00,78.2,67.6,29.96,NNE,17,0.0,6.0,70,0.00,,CLR,0.00,VWS V14.01,2013-08-22 23:59:00,
2013-08-22 19:00:00,78.2,67.6,29.96,NNE,17,0.0,6.0,70,0.00,,,0.00,VWS V14.01,2013-08-23 00:00:00,
2013-08-22 19:02:00,78.0,67.8,29.96,ENE,66,0.0,1.0,71,0.00,,SCT080,0.00,VWS V14.01,2013-08-23 00:02:00,
2013-08-22 19:03:00,78.0,67.8,29.96,NNE,31,0.0,1.0,71,0.00,,SCT080,0.00,VWS V14.01,2013-08-23 00:03:00,
2013-08-22 19:04:00,78.0,67.4,29.96,NE,51,0.0,1.0,70,0.00,,SCT080,0.00,VWS V14.01,2013-08-23 00:04:00,
2013-08-22 19:07:00,77.8,67.7,29.96,NE,46,0.0,1.0,71,0.00,,SCT080,0.00,VWS V14.01,2013-08-23 00:07:00,
2013-08-22 19:08:00,77.8,67.7,29.96,NNE,24,0.0,1.0,71,0.00,,SCT080,0.00,VWS V14.01,2013-08-23 00:08:00,
2013-08-22 19:09:00,77.8,67.7,29.96,NNE,24,0.0,1.0,71,0.00,,SCT080,0.00,VWS V14.01,2013-08-23 00:09:00,
2013-08-22 19:12:00,77.6,67.5,29.96,NNE,12,0.0,5.0,71,0.00,,SCT080,0.00,VWS V14.01,2013-08-23 00:12:00,
2013-08-22 19:13:00,77.6,67.5,29.96,NNE,12,0.0,5.0,71,0.00,,SCT080,0.00,VWS V14.01,2013-08-23 00:13:00,
2013-08-22 19:14:00,77.6,67.5,29.96,ENE,74,7.0,7.0,71,0.00,,SCT080,0.00,VWS V14.01,2013-08-23 00:14:00,
2013-08-22 19:17:00,77.5,67.4,29.96,NE,38,0.0,7.0,71,0.00,,SCT080,0.00,VWS V14.01,2013-08-23 00:17:00,
2013-08-22 19:18:00,77.5,67.4,29.96,NE,38,0.0,7.0,71,0.00,,SCT080,0.00,VWS V14.01,2013-08-23 00:18:00,
2013-08-22 19:20:00,77.3,67.2,29.96,NE,38,0.0,7.0,71,0.00,,SCT080,0.00,VWS V14.01,2013-08-23 00:20:00,
2013-08-22 19:22:00,77.3,67.6,29.96,ENE,78,0.0,7.0,72,0.00,,SCT080,0.00,VWS V14.01,2013-08-23 00:22:00,
2013-08-22 19:23:00,77.3,67.6,29.96,ENE,78,0.0,7.0,72,0.00,,SCT080,0.00,VWS V14.01,2013-08-23 00:23:00,
2013-08-22 19:25:00,77.1,67.4,29.96,ENE,78,0.0,7.0,72,0.00,,SCT080,0.00,VWS V14.01,2013-08-23 00:25:00,
2013-08-22 19:27:00,77.1,67.4,29.96,NNE,14,0.0,7.0,72,0.00,,SCT080,0.00,VWS V14.01,2013-08-23 00:27:00,
2013-08-22 19:28:00,77.1,67.4,29.96,NNE,14,0.0,7.0,72,0.00,,SCT080,0.00,VWS V14.01,2013-08-23 00:28:00,
2013-08-22 19:29:00,77.1,67.4,29.96,NNE,32,0.0,7.0,72,0.00,,SCT080,0.00,VWS V14.01,2013-08-23 00:29:00,
2013-08-22 19:30:00,77.1,67.4,29.96,NNE,25,0.0,7.0,72,0.00,,SCT080,0.00,VWS V14.01,2013-08-23 00:30:00,
2013-08-22 19:33:00,76.9,67.2,29.96,North,11,0.0,1.0,72,0.00,,SCT080,0.00,VWS V14.01,2013-08-23 00:33:00,
2013-08-22 19:34:00,76.9,67.2,29.96,NNE,17,1.0,1.0,72,0.00,,SCT080,0.00,VWS V14.01,2013-08-23 00:34:00,
2013-08-22 19:35:00,76.9,67.2,29.96,NNE,17,0.0,1.0,72,0.00,,SCT080,0.00,VWS V14.01,2013-08-23 00:35:00,
2013-08-22 19:38:00,76.7,67.4,29.96,NNE,17,0.0,1.0,73,0.00,,SCT080,0.00,VWS V14.01,2013-08-23 00:38:00,
2013-08-22 19:39:00,76.7,67.4,29.96,NNE,17,0.0,1.0,73,0.00,,SCT080,0.00,VWS V14.01,2013-08-23 00:39:00,
2013-08-22 19:40:00,76.7,67.4,29.96,NNE,17,0.0,1.0,73,0.00,,SCT080,0.00,VWS V14.01,2013-08-23 00:40:00,
2013-08-22 19:43:00,76.6,67.3,29.96,NNE,17,0.0,1.0,73,0.00,,SCT080,0.00,VWS V14.01,2013-08-23 00:43:00,
2013-08-22 19:44:00,76.6,67.3,29.96,NNE,17,0.0,1.0,73,0.00,,SCT080,0.00,VWS V14.01,2013-08-23 00:44:00,
2013-08-22 19:45:00,76.6,67.3,29.96,NNE,17,0.0,1.0,73,0.00,,CLR,0.00,VWS V14.01,2013-08-23 00:45:00,
2013-08-22 19:48:00,76.6,67.3,29.96,NNE,17,0.0,1.0,73,0.00,,CLR,0.00,VWS V14.01,2013-08-23 00:48:00,
2013-08-22 19:50:00,76.6,67.3,29.96,NNE,17,0.0,1.0,73,0.00,,CLR,0.00,VWS V14.01,2013-08-23 00:50:00,
2013-08-22 19:53:00,76.4,67.5,29.96,NNE,17,0.0,1.0,74,0.00,,CLR,0.00,VWS V14.01,2013-08-23 00:53:00,
2013-08-22 19:55:00,76.4,67.5,29.96,NNE,17,0.0,1.0,74,0.00,,CLR,0.00,VWS V14.01,2013-08-23 00:55:00,
2013-08-22 19:58:00,76.4,67.5,29.96,NNE,17,0.0,1.0,74,0.00,,CLR,0.00,VWS V14.01,2013-08-23 00:58:00,
2013-08-22 20:00:00,76.4,67.5,29.97,NNE,17,0.0,1.0,74,0.00,,CLR,0.00,VWS V14.01,2013-08-23 01:00:00,
2013-08-22 20:03:00,76.2,67.3,29.97,NNE,17,0.0,0.0,74,0.00,,CLR,0.00,VWS V14.01,2013-08-23 01:03:00,
2013-08-22 20:05:00,76.2,67.3,29.97,NNE,17,0.0,0.0,74,0.00,,CLR,0.00,VWS V14.01,2013-08-23 01:05:00,
2013-08-22 20:08:00,76.2,67.3,29.97,NNE,17,0.0,0.0,74,0.00,,CLR,0.00,VWS V14.01,2013-08-23 01:08:00,
2013-08-22 20:10:00,76.2,67.3,29.97,NNE,17,0.0,0.0,74,0.00,,CLR,0.00,VWS V14.01,2013-08-23 01:10:00,
2013-08-22 20:13:00,76.0,67.5,29.97,ENE,60,0.0,0.0,75,0.00,,CLR,0.00,VWS V14.01,2013-08-23 01:13:00,
2013-08-22 20:15:00,76.0,67.5,29.96,East,80,0.0,0.0,75,0.00,,CLR,0.00,VWS V14.01,2013-08-23 01:15:00,
2013-08-22 20:16:00,76.0,67.5,29.96,East,80,0.0,0.0,75,0.00,,CLR,0.00,VWS V14.01,2013-08-23 01:16:00,
2013-08-22 20:18:00,76.0,67.5,29.96,East,80,0.0,0.0,75,0.00,,CLR,0.00,VWS V14.01,2013-08-23 01:18:00,
2013-08-22 20:20:00,75.9,67.4,29.96,East,90,0.0,0.0,75,0.00,,CLR,0.00,VWS V14.01,2013-08-23 01:20:00,
2013-08-22 20:21:00,75.9,67.4,29.96,East,90,0.0,0.0,75,0.00,,CLR,0.00,VWS V14.01,2013-08-23 01:21:00,
2013-08-22 20:23:00,75.9,67.4,29.96,East,88,0.0,1.0,75,0.00,,CLR,0.00,VWS V14.01,2013-08-23 01:23:00,
2013-08-22 20:26:00,75.9,67.8,29.96,East,87,0.0,1.0,76,0.00,,CLR,0.00,VWS V14.01,2013-08-23 01:26:00,
2013-08-22 20:28:00,75.7,67.6,29.96,ENE,78,0.0,2.0,76,0.00,,CLR,0.00,VWS V14.01,2013-08-23 01:28:00,
2013-08-22 20:30:00,75.7,67.6,29.97,ENE,78,0.0,2.0,76,0.00,,,0.00,VWS V14.01,2013-08-23 01:30:00,
2013-08-22 20:31:00,75.7,67.6,29.97,ENE,78,0.0,0.0,76,0.00,,CLR,0.00,VWS V14.01,2013-08-23 01:31:00,
2013-08-22 20:33:00,75.7,67.6,29.97,ENE,78,0.0,1.0,76,0.00,,CLR,0.00,VWS V14.01,2013-08-23 01:33:00,
2013-08-22 20:34:00,75.7,67.6,29.97,ENE,78,0.0,1.0,76,0.00,,CLR,0.00,VWS V14.01,2013-08-23 01:34:00,
2013-08-22 20:36:00,75.7,67.6,29.97,ENE,78,0.0,1.0,76,0.00,,CLR,0.00,VWS V14.01,2013-08-23 01:36:00,
2013-08-22 20:39:00,75.7,67.6,29.97,ENE,78,0.0,1.0,76,0.00,,CLR,0.00,VWS V14.01,2013-08-23 01:39:00,
2013-08-22 20:41:00,75.7,67.6,29.97,East,98,0.0,1.0,76,0.00,,CLR,0.00,VWS V14.01,2013-08-23 01:41:00,
2013-08-22 20:42:00,75.7,67.6,29.97,East,98,0.0,1.0,76,0.00,,CLR,0.00,VWS V14.01,2013-08-23 01:42:00,
2013-08-22 20:44:00,75.7,67.6,29.97,NE,42,0.0,1.0,76,0.00,,CLR,0.00,VWS V14.01,2013-08-23 01:44:00,
2013-08-22 20:46:00,75.5,67.4,29.97,NE,44,0.0,1.0,76,0.00,,CLR,0.00,VWS V14.01,2013-08-23 01:46:00,
2013-08-22 20:47:00,75.5,67.4,29.97,NE,44,0.0,1.0,76,0.00,,CLR,0.00,VWS V14.01,2013-08-23 01:47:00,
2013-08-22 20:49:00,75.5,67.4,29.97,East,99,0.0,1.0,76,0.00,,CLR,0.00,VWS V14.01,2013-08-23 01:49:00,
2013-08-22 20:51:00,75.3,67.2,29.97,East,86,0.0,1.0,76,0.00,,CLR,0.00,VWS V14.01,2013-08-23 01:51:00,
2013-08-22 20:52:00,75.3,67.2,29.97,East,86,0.0,1.0,76,0.00,,CLR,0.00,VWS V14.01,2013-08-23 01:52:00,
2013-08-22 20:54:00,75.3,67.6,29.97,East,86,0.0,1.0,77,0.00,,CLR,0.00,VWS V14.01,2013-08-23 01:54:00,
2013-08-22 20:56:00,75.3,67.6,29.97,East,86,0.0,2.0,77,0.00,,CLR,0.00,VWS V14.01,2013-08-23 01:56:00,
2013-08-22 20:57:00,75.3,67.6,29.97,East,86,0.0,2.0,77,0.00,,CLR,0.00,VWS V14.01,2013-08-23 01:57:00,
2013-08-22 20:59:00,75.3,67.6,29.97,East,86,0.0,2.0,77,0.00,,CLR,0.00,VWS V14.01,2013-08-23 01:59:00,
2013-08-22 21:00:00,75.2,67.5,29.98,East,84,0.0,2.0,77,0.00,,,0.00,VWS V14.01,2013-08-23 02:00:00,
2013-08-22 21:01:00,75.2,67.5,29.98,East,84,0.0,0.0,77,0.00,,CLR,0.00,VWS V14.01,2013-08-23 02:01:00,
2013-08-22 21:02:00,75.2,67.5,29.98,East,84,0.0,0.0,77,0.00,,CLR,0.00,VWS V14.01,2013-08-23 02:02:00,
2013-08-22 21:04:00,75.2,67.5,29.98,East,84,0.0,0.0,77,0.00,,CLR,0.00,VWS V14.01,2013-08-23 02:04:00,
2013-08-22 21:05:00,75.2,67.5,29.98,East,84,0.0,0.0,77,0.00,,CLR,0.00,VWS V14.01,2013-08-23 02:05:00,
2013-08-22 21:07:00,75.2,67.5,29.98,East,84,0.0,0.0,77,0.00,,CLR,0.00,VWS V14.01,2013-08-23 02:07:00,
2013-08-22 21:09:00,75.0,67.3,29.98,East,96,0.0,1.0,77,0.00,,CLR,0.00,VWS V14.01,2013-08-23 02:09:00,
2013-08-22 21:10:00,75.0,67.3,29.98,East,96,0.0,1.0,77,0.00,,CLR,0.00,VWS V14.01,2013-08-23 02:10:00,
2013-08-22 21:12:00,75.0,67.3,29.98,East,96,0.0,1.0,77,0.00,,CLR,0.00,VWS V14.01,2013-08-23 02:12:00,
2013-08-22 21:13:00,75.0,67.3,29.98,East,96,0.0,1.0,77,0.00,,CLR,0.00,VWS V14.01,2013-08-23 02:13:00,
2013-08-22 21:14:00,74.8,67.5,29.98,East,96,0.0,1.0,78,0.00,,CLR,0.00,VWS V14.01,2013-08-23 02:14:00,
2013-08-22 21:15:00,74.8,67.5,29.97,East,96,0.0,1.0,78,0.00,,CLR,0.00,VWS V14.01,2013-08-23 02:15:00,
2013-08-22 21:17:00,75.0,67.7,29.97,East,96,0.0,1.0,78,0.00,,CLR,0.00,VWS V14.01,2013-08-23 02:17:00,
2013-08-22 21:18:00,75.0,67.7,29.97,East,96,0.0,1.0,78,0.00,,CLR,0.00,VWS V14.01,2013-08-23 02:18:00,
2013-08-22 21:19:00,75.0,67.3,29.97,East,96,0.0,1.0,77,0.00,,CLR,0.00,VWS V14.01,2013-08-23 02:19:00,
2013-08-22 21:21:00,75.0,67.3,29.97,East,96,0.0,1.0,77,0.00,,CLR,0.00,VWS V14.01,2013-08-23 02:21:00,
2013-08-22 21:22:00,75.0,67.3,29.97,East,96,0.0,1.0,77,0.00,,CLR,0.00,VWS V14.01,2013-08-23 02:22:00,
2013-08-22 21:23:00,75.0,67.3,29.97,East,96,0.0,1.0,77,0.00,,CLR,0.00,VWS V14.01,2013-08-23 02:23:00,
2013-08-22 21:25:00,75.0,67.3,29.97,East,96,0.0,1.0,77,0.00,,CLR,0.00,VWS V14.01,2013-08-23 02:25:00,
2013-08-22 21:26:00,75.0,67.3,29.97,East,96,0.0,1.0,77,0.00,,CLR,0.00,VWS V14.01,2013-08-23 02:26:00,
2013-08-22 21:27:00,75.0,67.3,29.97,East,96,0.0,1.0,77,0.00,,CLR,0.00,VWS V14.01,2013-08-23 02:27:00,
2013-08-22 21:28:00,75.0,67.3,29.97,East,96,0.0,1.0,77,0.00,,CLR,0.00,VWS V14.01,2013-08-23 02:28:00,
2013-08-22 21:30:00,75.0,67.3,29.97,East,96,0.0,1.0,77,0.00,,CLR,0.00,VWS V14.01,2013-08-23 02:30:00,
2013-08-22 21:31:00,75.2,67.5,29.97,East,96,0.0,0.0,77,0.00,,CLR,0.00,VWS V14.01,2013-08-23 02:31:00,
2013-08-22 21:32:00,75.2,67.5,29.97,East,96,0.0,0.0,77,0.00,,CLR,0.00,VWS V14.01,2013-08-23 02:32:00,
2013-08-22 21:33:00,75.2,67.5,29.97,East,96,0.0,0.0,77,0.00,,CLR,0.00,VWS V14.01,2013-08-23 02:33:00,
2013-08-22 21:35:00,75.2,67.5,29.97,East,96,0.0,0.0,77,0.00,,CLR,0.00,VWS V14.01,2013-08-23 02:35:00,
2013-08-22 21:36:00,75.2,67.5,29.97,East,96,0.0,0.0,77,0.00,,CLR,0.00,VWS V14.01,2013-08-23 02:36:00,
2013-08-22 21:37:00,75.2,67.5,29.97,East,96,0.0,0.0,77,0.00,,CLR,0.00,VWS V14.01,2013-08-23 02:37:00,
2013-08-22 21:38:00,75.2,67.5,29.97,East,96,0.0,0.0,77,0.00,,CLR,0.00,VWS V14.01,2013-08-23 02:38:00,
2013-08-22 21:40:00,75.2,67.5,29.97,East,96,0.0,0.0,77,0.00,,CLR,0.00,VWS V14.01,2013-08-23 02:40:00,
2013-08-22 21:42:00,75.0,67.7,29.97,East,96,0.0,0.0,78,0.00,,CLR,0.00,VWS V14.01,2013-08-23 02:42:00,
2013-08-22 21:43:00,75.0,67.7,29.97,East,96,0.0,0.0,78,0.00,,CLR,0.00,VWS V14.01,2013-08-23 02:43:00,
2013-08-22 21:45:00,75.0,67.7,29.97,East,97,0.0,0.0,78,0.00,,CLR,0.00,VWS V14.01,2013-08-23 02:45:00,
2013-08-22 21:47:00,74.8,67.5,29.97,ESE,122,0.0,1.0,78,0.00,,CLR,0.00,VWS V14.01,2013-08-23 02:47:00,
2013-08-22 21:48:00,74.6,67.3,29.97,ESE,122,0.0,1.0,78,0.00,,CLR,0.00,VWS V14.01,2013-08-23 02:48:00,
2013-08-22 21:50:00,74.6,67.7,29.97,ESE,111,0.0,1.0,79,0.00,,CLR,0.00,VWS V14.01,2013-08-23 02:50:00,
2013-08-22 21:52:00,74.5,67.6,29.97,ESE,111,0.0,1.0,79,0.00,,CLR,0.00,VWS V14.01,2013-08-23 02:52:00,
2013-08-22 21:53:00,74.5,67.6,29.97,ESE,111,0.0,1.0,79,0.00,,CLR,0.00,VWS V14.01,2013-08-23 02:53:00,
2013-08-22 21:55:00,74.5,67.6,29.97,ESE,111,0.0,1.0,79,0.00,,CLR,0.00,VWS V14.01,2013-08-23 02:55:00,
2013-08-22 21:57:00,74.5,67.6,29.97,ESE,111,0.0,1.0,79,0.00,,CLR,0.00,VWS V14.01,2013-08-23 02:57:00,
2013-08-22 21:58:00,74.5,67.6,29.97,ESE,111,0.0,1.0,79,0.00,,CLR,0.00,VWS V14.01,2013-08-23 02:58:00,
2013-08-22 22:00:00,74.5,67.6,29.97,ESE,111,0.0,1.0,79,0.00,,CLR,0.00,VWS V14.01,2013-08-23 03:00:00,
2013-08-22 22:02:00,74.5,67.6,29.97,ESE,109,0.0,1.0,79,0.00,,CLR,0.00,VWS V14.01,2013-08-23 03:02:00,
2013-08-22 22:03:00,74.5,67.6,29.97,ESE,109,0.0,1.0,79,0.00,,CLR,0.00,VWS V14.01,2013-08-23 03:03:00,
2013-08-22 22:05:00,74.5,67.9,29.97,ESE,109,0.0,1.0,80,0.00,,CLR,0.00,VWS V14.01,2013-08-23 03:05:00,
2013-08-22 22:07:00,74.5,67.9,29.97,ESE,109,0.0,1.0,80,0.00,,CLR,0.00,VWS V14.01,2013-08-23 03:07:00,
2013-08-22 22:08:00,74.5,67.9,29.97,ESE,109,0.0,1.0,80,0.00,,CLR,0.00,VWS V14.01,2013-08-23 03:08:00,
2013-08-22 22:10:00,74.5,67.9,29.97,ESE,109,0.0,1.0,80,0.00,,CLR,0.00,VWS V14.01,2013-08-23 03:10:00,
2013-08-22 22:13:00,74.5,67.9,29.97,ESE,109,0.0,1.0,80,0.00,,CLR,0.00,VWS V14.01,2013-08-23 03:13:00,
2013-08-22 22:16:00,74.3,67.7,29.97,ESE,108,0.0,1.0,80,0.00,,CLR,0.00,VWS V14.01,2013-08-23 03:16:00,
2013-08-22 22:18:00,74.3,67.7,29.97,ESE,108,0.0,1.0,80,0.00,,CLR,0.00,VWS V14.01,2013-08-23 03:18:00,
2013-08-22 22:19:00,74.3,67.7,29.97,ESE,108,0.0,1.0,80,0.00,,CLR,0.00,VWS V14.01,2013-08-23 03:19:00,
2013-08-22 22:21:00,74.1,67.5,29.97,ESE,108,0.0,1.0,80,0.00,,CLR,0.00,VWS V14.01,2013-08-23 03:21:00,
2013-08-22 22:23:00,73.9,67.7,29.97,ESE,108,0.0,1.0,81,0.00,,CLR,0.00,VWS V14.01,2013-08-23 03:23:00,
2013-08-22 22:24:00,73.9,67.7,29.97,ESE,108,0.0,1.0,81,0.00,,CLR,0.00,VWS V14.01,2013-08-23 03:24:00,
2013-08-22 22:26:00,73.8,67.6,29.97,ESE,108,0.0,1.0,81,0.00,,CLR,0.00,VWS V14.01,2013-08-23 03:26:00,
2013-08-22 22:28:00,73.6,67.4,29.97,ESE,108,0.0,1.0,81,0.00,,CLR,0.00,VWS V14.01,2013-08-23 03:28:00,
2013-08-22 22:29:00,73.6,67.4,29.97,ESE,108,0.0,1.0,81,0.00,,CLR,0.00,VWS V14.01,2013-08-23 03:29:00,
2013-08-22 22:30:00,73.4,67.6,29.97,ESE,108,0.0,1.0,82,0.00,,,0.00,VWS V14.01,2013-08-23 03:30:00,
2013-08-22 22:31:00,73.2,67.4,29.97,ESE,108,0.0,0.0,82,0.00,,CLR,0.00,VWS V14.01,2013-08-23 03:31:00,
2013-08-22 22:33:00,73.2,67.4,29.97,ESE,108,0.0,0.0,82,0.00,,CLR,0.00,VWS V14.01,2013-08-23 03:33:00,
2013-08-22 22:34:00,73.1,67.3,29.97,ESE,108,0.0,0.0,82,0.00,,CLR,0.00,VWS V14.01,2013-08-23 03:34:00,
2013-08-22 22:36:00,72.9,67.4,29.97,ESE,108,0.0,0.0,83,0.00,,CLR,0.00,VWS V14.01,2013-08-23 03:36:00,
2013-08-22 22:38:00,72.7,67.2,29.97,ESE,108,0.0,0.0,83,0.00,,CLR,0.00,VWS V14.01,2013-08-23 03:38:00,
2013-08-22 22:39:00,72.7,67.6,29.97,ESE,108,0.0,0.0,84,0.00,,CLR,0.00,VWS V14.01,2013-08-23 03:39:00,
2013-08-22 22:41:00,72.6,67.5,29.97,ESE,108,0.0,0.0,84,0.00,,CLR,0.00,VWS V14.01,2013-08-23 03:41:00,
2013-08-22 22:43:00,72.6,67.5,29.97,ESE,108,0.0,0.0,84,0.00,,CLR,0.00,VWS V14.01,2013-08-23 03:43:00,
2013-08-22 22:44:00,72.4,67.3,29.97,ESE,108,0.0,0.0,84,0.00,,CLR,0.00,VWS V14.01,2013-08-23 03:44:00,
2013-08-22 22:47:00,72.4,67.3,29.98,ESE,108,0.0,0.0,84,0.00,,CLR,0.00,VWS V14.01,2013-08-23 03:47:00,
2013-08-22 22:49:00,72.4,67.3,29.98,ESE,108,0.0,0.0,84,0.00,,CLR,0.00,VWS V14.01,2013-08-23 03:49:00,
2013-08-22 22:52:00,72.2,67.4,29.98,ESE,108,0.0,0.0,85,0.00,,CLR,0.00,VWS V14.01,2013-08-23 03:52:00,
2013-08-22 22:54:00,72.2,67.4,29.98,ESE,108,0.0,0.0,85,0.00,,CLR,0.00,VWS V14.01,2013-08-23 03:54:00,
2013-08-22 22:57:00,72.0,67.2,29.98,ESE,108,0.0,0.0,85,0.00,,CLR,0.00,VWS V14.01,2013-08-23 03:57:00,
2013-08-22 23:00:00,72.0,67.6,29.98,ESE,108,0.0,0.0,86,0.00,,CLR,0.00,VWS V14.01,2013-08-23 04:00:00,
2013-08-22 23:01:00,72.0,67.6,29.98,ESE,108,0.0,0.0,86,0.00,,CLR,0.00,VWS V14.01,2013-08-23 04:01:00,
2013-08-22 23:06:00,72.0,67.6,29.98,ESE,108,0.0,0.0,86,0.00,,CLR,0.00,VWS V14.01,2013-08-23 04:06:00,
2013-08-22 23:11:00,72.0,67.6,29.98,ESE,108,0.0,0.0,86,0.00,,CLR,0.00,VWS V14.01,2013-08-23 04:11:00,
2013-08-22 23:12:00,72.0,67.6,29.98,ESE,108,0.0,0.0,86,0.00,,CLR,0.00,VWS V14.01,2013-08-23 04:12:00,
2013-08-22 23:16:00,72.2,67.8,29.98,ESE,108,0.0,0.0,86,0.00,,CLR,0.00,VWS V14.01,2013-08-23 04:16:00,
2013-08-22 23:18:00,72.2,67.8,29.98,ESE,108,0.0,0.0,86,0.00,,CLR,0.00,VWS V14.01,2013-08-23 04:18:00,
2013-08-22 23:21:00,72.4,68.0,29.98,ESE,108,0.0,0.0,86,0.00,,CLR,0.00,VWS V14.01,2013-08-23 04:21:00,
2013-08-22 23:23:00,72.4,68.0,29.98,ESE,108,0.0,0.0,86,0.00,,CLR,0.00,VWS V14.01,2013-08-23 04:23:00,
2013-08-22 23:26:00,72.4,68.0,29.98,ESE,108,0.0,0.0,86,0.00,,CLR,0.00,VWS V14.01,2013-08-23 04:26:00,
2013-08-22 23:27:00,72.4,68.0,29.98,ESE,108,0.0,0.0,86,0.00,,CLR,0.00,VWS V14.01,2013-08-23 04:27:00,
2013-08-22 23:28:00,72.4,68.0,29.98,ESE,108,0.0,0.0,86,0.00,,CLR,0.00,VWS V14.01,2013-08-23 04:28:00,
2013-08-22 23:30:00,72.6,68.2,29.98,ESE,108,0.0,0.0,86,0.00,,,0.00,VWS V14.01,2013-08-23 04:30:00,
2013-08-22 23:31:00,72.6,68.2,29.98,ESE,108,0.0,0.0,86,0.00,,CLR,0.00,VWS V14.01,2013-08-23 04:31:00,
2013-08-22 23:32:00,72.6,68.2,29.98,ESE,108,0.0,0.0,86,0.00,,CLR,0.00,VWS V14.01,2013-08-23 04:32:00,
2013-08-22 23:33:00,72.6,68.2,29.98,ESE,108,0.0,0.0,86,0.00,,CLR,0.00,VWS V14.01,2013-08-23 04:33:00,
2013-08-22 23:36:00,72.6,68.2,29.98,ESE,108,0.0,0.0,86,0.00,,CLR,0.00,VWS V14.01,2013-08-23 04:36:00,
2013-08-22 23:37:00,72.6,68.2,29.98,ESE,108,0.0,0.0,86,0.00,,CLR,0.00,VWS V14.01,2013-08-23 04:37:00,
2013-08-22 23:38:00,72.6,68.2,29.98,ESE,108,0.0,0.0,86,0.00,,CLR,0.00,VWS V14.01,2013-08-23 04:38:00,
2013-08-22 23:42:00,72.7,68.3,29.98,ESE,108,0.0,0.0,86,0.00,,CLR,0.00,VWS V14.01,2013-08-23 04:42:00,
2013-08-22 23:43:00,72.7,68.3,29.98,ESE,108,0.0,0.0,86,0.00,,CLR,0.00,VWS V14.01,2013-08-23 04:43:00,
2013-08-22 23:47:00,72.7,68.3,29.99,ESE,108,0.0,0.0,86,0.00,,CLR,0.00,VWS V14.01,2013-08-23 04:47:00,
2013-08-22 23:49:00,72.7,67.9,29.99,ESE,108,0.0,0.0,85,0.00,,CLR,0.00,VWS V14.01,2013-08-23 04:49:00,
2013-08-22 23:52:00,72.7,67.9,29.99,ESE,108,0.0,0.0,85,0.00,,CLR,0.00,VWS V14.01,2013-08-23 04:52:00,
2013-08-22 23:54:00,72.7,67.9,29.99,ESE,108,0.0,0.0,85,0.00,,CLR,0.00,VWS V14.01,2013-08-23 04:54:00,
2013-08-22 23:57:00,72.7,67.9,29.99,ESE,108,0.0,0.0,85,0.00,,CLR,0.00,VWS V14.01,2013-08-23 04:57:00,
2013-08-22 23:59:00,72.7,67.9,29.99,ESE,108,0.0,0.0,85,0.00,,CLR,0.00,VWS V14.01,2013-08-23 04:59:00,